createdAt,value
2023-12-16T00:00:07.913Z,1015.5
2023-12-16T00:01:09.998Z,1015.5
2023-12-16T00:02:12.252Z,1015.5
2023-12-16T00:03:15.204Z,1015.5
2023-12-16T00:04:17.583Z,1015.5
2023-12-16T00:05:20.390Z,1015.5
2023-12-16T00:06:22.237Z,1015.5
2023-12-16T00:07:24.842Z,1015.5
2023-12-16T00:08:27.285Z,1015.5
2023-12-16T00:09:28.920Z,1015.5
2023-12-16T00:10:32.997Z,1015.5
2023-12-16T00:11:36.467Z,1015.5
2023-12-16T00:12:40.040Z,1015.5
2023-12-16T00:13:45.170Z,1015.5
2023-12-16T00:14:47.389Z,1015.5
2023-12-16T00:15:49.120Z,1015.5
2023-12-16T00:16:51.148Z,1015.5
2023-12-16T00:17:52.922Z,1015.5
2023-12-16T00:18:55.677Z,1015.5
2023-12-16T00:19:59.548Z,1015.5
2023-12-16T00:21:02.627Z,1015.5
2023-12-16T00:22:04.221Z,1015.4
2023-12-16T00:23:07.133Z,1015.4
2023-12-16T00:24:08.792Z,1015.4
2023-12-16T00:25:10.623Z,1015.4
2023-12-16T00:26:12.901Z,1015.4
2023-12-16T00:27:14.618Z,1015.4
2023-12-16T00:28:16.833Z,1015.4
2023-12-16T00:29:19.131Z,1015.4
2023-12-16T00:30:21.289Z,1015.4
2023-12-16T00:31:23.102Z,1015.4
2023-12-16T00:32:25.746Z,1015.4
2023-12-16T00:33:28.143Z,1015.5
2023-12-16T00:34:30.886Z,1015.5
2023-12-16T00:35:33.454Z,1015.5
2023-12-16T00:36:35.467Z,1015.5
2023-12-16T00:37:37.603Z,1015.5
2023-12-16T00:38:41.697Z,1015.5
2023-12-16T00:39:43.418Z,1015.5
2023-12-16T00:40:45.782Z,1015.5
2023-12-16T00:41:47.300Z,1015.5
2023-12-16T00:42:49.021Z,1015.5
2023-12-16T00:43:51.337Z,1015.5
2023-12-16T00:44:53.568Z,1015.5
2023-12-16T00:45:55.771Z,1015.5
2023-12-16T00:46:57.946Z,1015.5
2023-12-16T00:47:59.514Z,1015.5
2023-12-16T00:49:02.347Z,1015.5
2023-12-16T00:50:05.270Z,1015.5
2023-12-16T00:51:07.086Z,1015.5
2023-12-16T00:52:09.365Z,1015.5
2023-12-16T00:53:11.426Z,1015.5
2023-12-16T00:54:13.233Z,1015.5
2023-12-16T00:55:14.969Z,1015.5
2023-12-16T00:56:17.518Z,1015.5
2023-12-16T00:57:26.353Z,1015.5
2023-12-16T00:58:28.244Z,1015.5
2023-12-16T00:59:30.470Z,1015.5
2023-12-16T01:00:32.164Z,1015.5
2023-12-16T01:01:34.544Z,1015.5
2023-12-16T01:02:38.908Z,1015.5
2023-12-16T01:03:40.646Z,1015.5
2023-12-16T01:04:43.057Z,1015.5
2023-12-16T01:05:45.281Z,1015.5
2023-12-16T01:06:47.638Z,1015.5
2023-12-16T01:07:50.076Z,1015.5
2023-12-16T01:08:51.710Z,1015.5
2023-12-16T01:09:53.639Z,1015.5
2023-12-16T01:10:55.744Z,1015.5
2023-12-16T01:11:57.447Z,1015.5
2023-12-16T01:12:59.398Z,1015.5
2023-12-16T01:14:02.518Z,1015.5
2023-12-16T01:15:04.513Z,1015.5
2023-12-16T01:16:06.255Z,1015.5
2023-12-16T01:17:08.402Z,1015.5
2023-12-16T01:18:10.304Z,1015.5
2023-12-16T01:19:13.573Z,1015.5
2023-12-16T01:20:16.233Z,1015.5
2023-12-16T01:21:18.270Z,1015.5
2023-12-16T01:22:22.173Z,1015.5
2023-12-16T01:23:24.577Z,1015.5
2023-12-16T01:24:26.081Z,1015.5
2023-12-16T01:25:27.630Z,1015.5
2023-12-16T01:26:29.994Z,1015.5
2023-12-16T01:27:31.700Z,1015.5
2023-12-16T01:28:34.495Z,1015.5
2023-12-16T01:29:36.024Z,1015.6
2023-12-16T01:30:37.647Z,1015.6
2023-12-16T01:31:39.853Z,1015.6
2023-12-16T01:32:42.690Z,1015.5
2023-12-16T01:33:45.004Z,1015.6
2023-12-16T01:34:47.921Z,1015.6
2023-12-16T01:35:49.546Z,1015.6
2023-12-16T01:36:51.412Z,1015.6
2023-12-16T01:37:53.427Z,1015.6
2023-12-16T01:38:54.989Z,1015.6
2023-12-16T01:39:56.699Z,1015.6
2023-12-16T01:40:58.886Z,1015.6
2023-12-16T01:42:01.317Z,1015.6
2023-12-16T01:43:03.119Z,1015.6
2023-12-16T01:44:05.531Z,1015.6
2023-12-16T01:45:07.146Z,1015.6
2023-12-16T01:46:10.082Z,1015.6
2023-12-16T01:47:12.695Z,1015.6
2023-12-16T01:48:14.541Z,1015.5
2023-12-16T01:49:17.109Z,1015.5
2023-12-16T01:50:20.011Z,1015.5
2023-12-16T01:51:21.867Z,1015.5
2023-12-16T01:52:23.699Z,1015.5
2023-12-16T01:53:25.954Z,1015.5
2023-12-16T01:54:27.883Z,1015.5
2023-12-16T01:55:29.950Z,1015.5
2023-12-16T01:56:32.220Z,1015.5
2023-12-16T01:57:33.781Z,1015.5
2023-12-16T01:58:35.391Z,1015.5
2023-12-16T01:59:36.992Z,1015.5
2023-12-16T02:00:39.108Z,1015.5
2023-12-16T02:01:41.607Z,1015.5
2023-12-16T02:02:44.304Z,1015.5
2023-12-16T02:03:46.298Z,1015.5
2023-12-16T02:04:49.158Z,1015.5
2023-12-16T02:05:51.552Z,1015.5
2023-12-16T02:06:53.295Z,1015.4
2023-12-16T02:07:55.694Z,1015.4
2023-12-16T02:08:57.739Z,1015.4
2023-12-16T02:09:59.697Z,1015.4
2023-12-16T02:11:02.245Z,1015.4
2023-12-16T02:12:04.098Z,1015.4
2023-12-16T02:13:05.668Z,1015.4
2023-12-16T02:14:08.003Z,1015.4
2023-12-16T02:15:09.564Z,1015.3
2023-12-16T02:16:11.418Z,1015.3
2023-12-16T02:17:14.504Z,1015.3
2023-12-16T02:18:16.597Z,1015.3
2023-12-16T02:19:19.494Z,1015.3
2023-12-16T02:20:22.112Z,1015.3
2023-12-16T02:21:24.112Z,1015.3
2023-12-16T02:22:25.723Z,1015.3
2023-12-16T02:23:28.122Z,1015.3
2023-12-16T02:24:30.244Z,1015.3
2023-12-16T02:25:31.953Z,1015.3
2023-12-16T02:26:34.108Z,1015.3
2023-12-16T02:27:36.008Z,1015.3
2023-12-16T02:28:39.621Z,1015.3
2023-12-16T02:29:41.164Z,1015.3
2023-12-16T02:30:43.102Z,1015.3
2023-12-16T02:31:45.875Z,1015.3
2023-12-16T02:32:48.171Z,1015.3
2023-12-16T02:33:51.471Z,1015.3
2023-12-16T02:34:54.516Z,1015.3
2023-12-16T02:35:56.297Z,1015.3
2023-12-16T02:36:58.197Z,1015.3
2023-12-16T02:37:59.831Z,1015.3
2023-12-16T02:39:01.644Z,1015.3
2023-12-16T02:40:03.350Z,1015.3
2023-12-16T02:41:05.441Z,1015.3
2023-12-16T02:42:07.381Z,1015.3
2023-12-16T02:43:09.914Z,1015.3
2023-12-16T02:44:12.515Z,1015.3
2023-12-16T02:45:14.577Z,1015.4
2023-12-16T02:46:16.164Z,1015.4
2023-12-16T02:47:18.315Z,1015.4
2023-12-16T02:48:20.472Z,1015.4
2023-12-16T02:49:23.094Z,1015.4
2023-12-16T02:50:26.116Z,1015.4
2023-12-16T02:51:27.871Z,1015.4
2023-12-16T02:52:29.404Z,1015.4
2023-12-16T02:53:31.481Z,1015.4
2023-12-16T02:54:33.335Z,1015.4
2023-12-16T02:55:34.849Z,1015.4
2023-12-16T02:56:36.577Z,1015.4
2023-12-16T02:57:38.390Z,1015.4
2023-12-16T02:58:41.814Z,1015.4
2023-12-16T02:59:43.917Z,1015.5
2023-12-16T03:00:46.524Z,1015.5
2023-12-16T03:01:49.015Z,1015.5
2023-12-16T03:02:51.168Z,1015.5
2023-12-16T03:03:53.587Z,1015.5
2023-12-16T03:04:55.914Z,1015.5
2023-12-16T03:05:58.237Z,1015.5
2023-12-16T03:07:00.245Z,1015.5
2023-12-16T03:08:02.305Z,1015.5
2023-12-16T03:09:04.560Z,1015.5
2023-12-16T03:10:06.093Z,1015.5
2023-12-16T03:11:08.430Z,1015.5
2023-12-16T03:12:10.089Z,1015.5
2023-12-16T03:13:12.417Z,1015.5
2023-12-16T03:14:15.267Z,1015.5
2023-12-16T03:15:16.891Z,1015.5
2023-12-16T03:16:18.691Z,1015.5
2023-12-16T03:17:21.409Z,1015.5
2023-12-16T03:18:23.002Z,1015.5
2023-12-16T03:19:25.835Z,1015.5
2023-12-16T03:20:29.331Z,1015.5
2023-12-16T03:21:31.241Z,1015.5
2023-12-16T03:22:33.083Z,1015.5
2023-12-16T03:23:35.649Z,1015.5
2023-12-16T03:24:37.653Z,1015.5
2023-12-16T03:25:39.751Z,1015.5
2023-12-16T03:26:41.292Z,1015.5
2023-12-16T03:27:42.856Z,1015.5
2023-12-16T03:28:44.784Z,1015.5
2023-12-16T03:29:46.604Z,1015.5
2023-12-16T03:30:48.542Z,1015.5
2023-12-16T03:31:51.466Z,1015.5
2023-12-16T03:32:53.977Z,1015.5
2023-12-16T03:33:56.797Z,1015.5
2023-12-16T03:34:59.851Z,1015.6
2023-12-16T03:36:01.865Z,1015.6
2023-12-16T03:37:04.032Z,1015.6
2023-12-16T03:38:06.327Z,1015.6
2023-12-16T03:39:08.001Z,1015.6
2023-12-16T03:40:09.595Z,1015.6
2023-12-16T03:41:12.091Z,1015.6
2023-12-16T03:42:14.527Z,1015.6
2023-12-16T03:43:16.654Z,1015.6
2023-12-16T03:44:19.083Z,1015.6
2023-12-16T03:45:20.821Z,1015.6
2023-12-16T03:46:22.437Z,1015.6
2023-12-16T03:47:25.340Z,1015.6
2023-12-16T03:48:26.981Z,1015.6
2023-12-16T03:49:29.722Z,1015.6
2023-12-16T03:50:32.696Z,1015.6
2023-12-16T03:51:34.573Z,1015.6
2023-12-16T03:52:36.487Z,1015.6
2023-12-16T03:53:39.335Z,1015.6
2023-12-16T03:54:41.350Z,1015.6
2023-12-16T03:55:42.975Z,1015.6
2023-12-16T03:56:44.452Z,1015.6
2023-12-16T03:57:46.382Z,1015.6
2023-12-16T03:58:48.615Z,1015.6
2023-12-16T03:59:50.735Z,1015.6
2023-12-16T04:00:53.402Z,1015.6
2023-12-16T04:01:56.408Z,1015.6
2023-12-16T04:02:59.079Z,1015.6
2023-12-16T04:04:01.030Z,1015.6
2023-12-16T04:05:03.169Z,1015.6
2023-12-16T04:06:06.027Z,1015.6
2023-12-16T04:07:07.696Z,1015.6
2023-12-16T04:08:10.156Z,1015.6
2023-12-16T04:09:11.884Z,1015.6
2023-12-16T04:10:13.473Z,1015.6
2023-12-16T04:11:16.338Z,1015.6
2023-12-16T04:12:18.126Z,1015.6
2023-12-16T04:13:20.058Z,1015.6
2023-12-16T04:14:22.623Z,1015.6
2023-12-16T04:15:24.195Z,1015.6
2023-12-16T04:16:27.890Z,1015.6
2023-12-16T04:17:30.218Z,1015.6
2023-12-16T04:18:34.427Z,1015.6
2023-12-16T04:19:37.042Z,1015.6
2023-12-16T04:20:42.910Z,1015.6
2023-12-16T04:21:44.777Z,1015.6
2023-12-16T04:22:47.275Z,1015.6
2023-12-16T04:23:49.370Z,1015.7
2023-12-16T04:24:51.140Z,1015.7
2023-12-16T04:25:54.058Z,1015.7
2023-12-16T04:26:55.946Z,1015.7
2023-12-16T04:27:57.486Z,1015.7
2023-12-16T04:28:59.965Z,1015.7
2023-12-16T04:30:01.772Z,1015.7
2023-12-16T04:31:03.998Z,1015.7
2023-12-16T04:32:07.072Z,1015.7
2023-12-16T04:33:09.009Z,1015.7
2023-12-16T04:34:11.447Z,1015.7
2023-12-16T04:35:14.315Z,1015.7
2023-12-16T04:36:16.813Z,1015.7
2023-12-16T04:37:18.372Z,1015.7
2023-12-16T04:38:20.989Z,1015.7
2023-12-16T04:39:23.302Z,1015.7
2023-12-16T04:40:24.981Z,1015.7
2023-12-16T04:41:27.373Z,1015.7
2023-12-16T04:42:29.281Z,1015.7
2023-12-16T04:43:31.743Z,1015.7
2023-12-16T04:44:33.926Z,1015.7
2023-12-16T04:45:35.930Z,1015.7
2023-12-16T04:46:38.030Z,1015.7
2023-12-16T04:47:39.906Z,1015.6
2023-12-16T04:48:43.778Z,1015.6
2023-12-16T04:49:46.958Z,1015.6
2023-12-16T04:50:49.076Z,1015.6
2023-12-16T04:51:50.696Z,1015.6
2023-12-16T04:52:53.364Z,1015.6
2023-12-16T04:53:54.972Z,1015.6
2023-12-16T04:54:56.735Z,1015.6
2023-12-16T04:55:59.196Z,1015.6
2023-12-16T04:57:01.050Z,1015.6
2023-12-16T04:58:02.798Z,1015.6
2023-12-16T04:59:05.586Z,1015.6
2023-12-16T05:00:07.927Z,1015.6
2023-12-16T05:01:10.228Z,1015.6
2023-12-16T05:02:12.709Z,1015.6
2023-12-16T05:03:14.466Z,1015.6
2023-12-16T05:04:16.830Z,1015.6
2023-12-16T05:05:20.044Z,1015.6
2023-12-16T05:06:23.060Z,1015.6
2023-12-16T05:07:24.631Z,1015.6
2023-12-16T05:08:27.080Z,1015.6
2023-12-16T05:09:28.937Z,1015.6
2023-12-16T05:10:30.680Z,1015.6
2023-12-16T05:11:33.892Z,1015.5
2023-12-16T05:12:36.276Z,1015.5
2023-12-16T05:13:38.521Z,1015.5
2023-12-16T05:14:40.048Z,1015.5
2023-12-16T05:15:42.413Z,1015.5
2023-12-16T05:16:44.408Z,1015.5
2023-12-16T05:17:46.093Z,1015.5
2023-12-16T05:18:48.642Z,1015.5
2023-12-16T05:19:52.294Z,1015.5
2023-12-16T05:20:55.142Z,1015.6
2023-12-16T05:21:56.935Z,1015.6
2023-12-16T05:22:59.591Z,1015.6
2023-12-16T05:24:01.213Z,1015.6
2023-12-16T05:25:02.908Z,1015.6
2023-12-16T05:26:06.669Z,1015.6
2023-12-16T05:27:08.547Z,1015.6
2023-12-16T05:28:10.078Z,1015.6
2023-12-16T05:29:12.273Z,1015.6
2023-12-16T05:30:14.012Z,1015.6
2023-12-16T05:31:17.501Z,1015.6
2023-12-16T05:32:19.907Z,1015.6
2023-12-16T05:33:21.829Z,1015.7
2023-12-16T05:34:24.639Z,1015.7
2023-12-16T05:35:26.943Z,1015.7
2023-12-16T05:36:29.101Z,1015.7
2023-12-16T05:37:30.980Z,1015.7
2023-12-16T05:38:33.083Z,1015.7
2023-12-16T05:39:35.636Z,1015.7
2023-12-16T05:40:37.846Z,1015.7
2023-12-16T05:41:40.620Z,1015.7
2023-12-16T05:42:42.404Z,1015.7
2023-12-16T05:43:43.983Z,1015.7
2023-12-16T05:44:45.859Z,1015.7
2023-12-16T05:45:48.211Z,1015.7
2023-12-16T05:46:50.662Z,1015.8
2023-12-16T05:47:52.606Z,1015.8
2023-12-16T05:48:55.386Z,1015.8
2023-12-16T05:49:58.827Z,1015.8
2023-12-16T05:51:00.863Z,1015.8
2023-12-16T05:52:02.702Z,1015.8
2023-12-16T05:53:05.287Z,1015.8
2023-12-16T05:54:07.856Z,1015.8
2023-12-16T05:55:09.887Z,1015.8
2023-12-16T05:56:12.308Z,1015.8
2023-12-16T05:57:14.344Z,1015.8
2023-12-16T05:58:18.440Z,1015.8
2023-12-16T05:59:24.756Z,1015.8
2023-12-16T06:00:26.580Z,1015.9
2023-12-16T06:01:28.462Z,1015.9
2023-12-16T06:02:30.695Z,1015.9
2023-12-16T06:03:32.902Z,1015.9
2023-12-16T06:04:34.969Z,1015.9
2023-12-16T06:05:36.714Z,1015.9
2023-12-16T06:06:39.484Z,1015.9
2023-12-16T06:07:42.161Z,1015.9
2023-12-16T06:08:44.096Z,1015.9
2023-12-16T06:09:45.967Z,1015.9
2023-12-16T06:10:48.147Z,1015.9
2023-12-16T06:11:49.801Z,1015.9
2023-12-16T06:12:52.091Z,1015.9
2023-12-16T06:13:54.814Z,1015.9
2023-12-16T06:14:56.768Z,1015.9
2023-12-16T06:16:03.632Z,1015.9
2023-12-16T06:17:23.432Z,1016
2023-12-16T06:18:27.089Z,1016
2023-12-16T06:19:36.492Z,1016.1
2023-12-16T06:20:39.154Z,1016.1
2023-12-16T06:21:40.899Z,1016.1
2023-12-16T06:22:42.938Z,1016.2
2023-12-16T06:23:45.365Z,1016.2
2023-12-16T06:24:46.974Z,1016.2
2023-12-16T06:25:49.206Z,1016.2
2023-12-16T06:26:50.723Z,1016.2
2023-12-16T06:27:54.199Z,1016.2
2023-12-16T06:28:57.000Z,1016.2
2023-12-16T06:29:58.573Z,1016.2
2023-12-16T06:31:00.239Z,1016.2
2023-12-16T06:32:03.776Z,1016.3
2023-12-16T06:33:05.580Z,1016.3
2023-12-16T06:34:08.150Z,1016.3
2023-12-16T06:35:11.339Z,1016.3
2023-12-16T06:36:13.327Z,1016.3
2023-12-16T06:37:15.171Z,1016.3
2023-12-16T06:38:17.315Z,1016.3
2023-12-16T06:39:18.913Z,1016.3
2023-12-16T06:40:20.475Z,1016.3
2023-12-16T06:41:24.403Z,1016.3
2023-12-16T06:42:26.054Z,1016.3
2023-12-16T06:43:27.990Z,1016.3
2023-12-16T06:44:33.378Z,1016.3
2023-12-16T06:45:35.246Z,1016.3
2023-12-16T06:46:36.784Z,1016.3
2023-12-16T06:47:39.650Z,1016.4
2023-12-16T06:48:43.802Z,1016.4
2023-12-16T06:49:46.328Z,1016.4
2023-12-16T06:50:49.066Z,1016.4
2023-12-16T06:51:50.610Z,1016.4
2023-12-16T06:52:52.843Z,1016.4
2023-12-16T06:53:54.309Z,1016.4
2023-12-16T06:54:56.516Z,1016.4
2023-12-16T06:55:58.980Z,1016.4
2023-12-16T06:57:00.945Z,1016.4
2023-12-16T06:58:02.741Z,1016.4
2023-12-16T06:59:04.718Z,1016.4
2023-12-16T07:00:06.734Z,1016.4
2023-12-16T07:01:09.728Z,1016.4
2023-12-16T07:02:13.254Z,1016.4
2023-12-16T07:03:15.545Z,1016.4
2023-12-16T07:04:17.910Z,1016.4
2023-12-16T07:05:20.146Z,1016.4
2023-12-16T07:06:22.460Z,1016.4
2023-12-16T07:07:24.867Z,1016.4
2023-12-16T07:08:27.230Z,1016.4
2023-12-16T07:09:28.961Z,1016.4
2023-12-16T07:10:30.861Z,1016.4
2023-12-16T07:11:33.138Z,1016.4
2023-12-16T07:12:35.144Z,1016.4
2023-12-16T07:13:36.906Z,1016.4
2023-12-16T07:14:38.899Z,1016.4
2023-12-16T07:15:41.133Z,1016.4
2023-12-16T07:16:43.320Z,1016.4
2023-12-16T07:17:45.354Z,1016.4
2023-12-16T07:18:47.737Z,1016.4
2023-12-16T07:19:51.383Z,1016.4
2023-12-16T07:20:54.516Z,1016.4
2023-12-16T07:21:57.348Z,1016.4
2023-12-16T07:22:59.584Z,1016.4
2023-12-16T07:24:01.100Z,1016.4
2023-12-16T07:25:04.114Z,1016.4
2023-12-16T07:26:07.329Z,1016.4
2023-12-16T07:27:09.663Z,1016.4
2023-12-16T07:28:11.220Z,1016.4
2023-12-16T07:29:13.948Z,1016.4
2023-12-16T07:30:15.614Z,1016.4
2023-12-16T07:31:18.189Z,1016.4
2023-12-16T07:32:21.212Z,1016.4
2023-12-16T07:33:23.851Z,1016.4
2023-12-16T07:34:26.976Z,1016.4
2023-12-16T07:35:31.485Z,1016.4
2023-12-16T07:36:33.257Z,1016.4
2023-12-16T07:37:34.987Z,1016.4
2023-12-16T07:38:39.923Z,1016.5
2023-12-16T07:39:41.581Z,1016.5
2023-12-16T07:40:43.196Z,1016.5
2023-12-16T07:41:45.053Z,1016.5
2023-12-16T07:42:46.606Z,1016.5
2023-12-16T07:43:48.162Z,1016.5
2023-12-16T07:44:49.809Z,1016.5
2023-12-16T07:45:51.557Z,1016.5
2023-12-16T07:46:53.957Z,1016.5
2023-12-16T07:47:55.846Z,1016.5
2023-12-16T07:48:58.350Z,1016.5
2023-12-16T07:50:02.208Z,1016.5
2023-12-16T07:51:04.122Z,1016.5
2023-12-16T07:52:06.341Z,1016.6
2023-12-16T07:53:08.684Z,1016.6
2023-12-16T07:54:10.478Z,1016.6
2023-12-16T07:55:12.220Z,1016.6
2023-12-16T07:56:14.952Z,1016.6
2023-12-16T07:57:18.112Z,1016.6
2023-12-16T07:58:20.265Z,1016.7
2023-12-16T07:59:23.647Z,1016.7
2023-12-16T08:00:25.521Z,1016.7
2023-12-16T08:01:27.612Z,1016.7
2023-12-16T08:02:30.430Z,1016.7
2023-12-16T08:03:32.328Z,1016.7
2023-12-16T08:04:35.295Z,1016.7
2023-12-16T08:05:37.607Z,1016.8
2023-12-16T08:06:39.419Z,1016.8
2023-12-16T08:07:42.141Z,1016.8
2023-12-16T08:08:45.225Z,1016.8
2023-12-16T08:09:46.880Z,1016.8
2023-12-16T08:10:49.207Z,1016.8
2023-12-16T08:11:51.099Z,1016.8
2023-12-16T08:12:52.886Z,1016.8
2023-12-16T08:13:55.238Z,1016.8
2023-12-16T08:14:59.698Z,1016.9
2023-12-16T08:16:02.168Z,1016.9
2023-12-16T08:17:06.964Z,1016.9
2023-12-16T08:18:09.392Z,1016.9
2023-12-16T08:19:13.649Z,1016.9
2023-12-16T08:20:16.974Z,1016.9
2023-12-16T08:21:18.603Z,1016.9
2023-12-16T08:22:20.428Z,1016.9
2023-12-16T08:23:22.579Z,1016.9
2023-12-16T08:24:24.706Z,1016.9
2023-12-16T08:25:26.640Z,1016.9
2023-12-16T08:26:28.944Z,1016.9
2023-12-16T08:27:30.898Z,1016.9
2023-12-16T08:28:33.156Z,1016.9
2023-12-16T08:29:35.842Z,1016.9
2023-12-16T08:30:37.713Z,1016.9
2023-12-16T08:31:40.258Z,1016.9
2023-12-16T08:32:42.228Z,1016.9
2023-12-16T08:33:45.015Z,1016.9
2023-12-16T08:34:48.070Z,1016.9
2023-12-16T08:35:50.906Z,1016.9
2023-12-16T08:36:53.236Z,1016.9
2023-12-16T08:37:55.539Z,1016.9
2023-12-16T08:38:58.090Z,1016.9
2023-12-16T08:39:59.683Z,1016.9
2023-12-16T08:41:01.784Z,1016.9
2023-12-16T08:42:05.503Z,1016.9
2023-12-16T08:43:08.450Z,1016.9
2023-12-16T08:44:12.154Z,1016.9
2023-12-16T08:45:15.027Z,1016.8
2023-12-16T08:46:16.968Z,1016.8
2023-12-16T08:47:19.364Z,1016.8
2023-12-16T08:48:21.044Z,1016.8
2023-12-16T08:49:24.862Z,1016.8
2023-12-16T08:50:27.609Z,1016.8
2023-12-16T08:51:29.525Z,1016.8
2023-12-16T08:52:31.060Z,1016.8
2023-12-16T08:53:33.299Z,1016.8
2023-12-16T08:54:35.272Z,1016.8
2023-12-16T08:55:36.984Z,1016.8
2023-12-16T08:56:39.224Z,1016.8
2023-12-16T08:57:41.008Z,1016.8
2023-12-16T08:58:44.006Z,1016.8
2023-12-16T08:59:45.590Z,1016.7
2023-12-16T09:00:47.113Z,1016.7
2023-12-16T09:01:49.000Z,1016.7
2023-12-16T09:02:54.152Z,1016.7
2023-12-16T09:03:56.171Z,1016.7
2023-12-16T09:04:59.007Z,1016.7
2023-12-16T09:06:01.161Z,1016.7
2023-12-16T09:07:03.582Z,1016.7
2023-12-16T09:08:06.746Z,1016.7
2023-12-16T09:09:10.222Z,1016.7
2023-12-16T09:10:15.563Z,1016.7
2023-12-16T09:11:18.297Z,1016.7
2023-12-16T09:12:23.406Z,1016.7
2023-12-16T09:13:25.088Z,1016.7
2023-12-16T09:14:27.478Z,1016.7
2023-12-16T09:15:29.010Z,1016.7
2023-12-16T09:16:30.795Z,1016.7
2023-12-16T09:17:33.071Z,1016.7
2023-12-16T09:18:35.049Z,1016.7
2023-12-16T09:19:37.661Z,1016.7
2023-12-16T09:20:40.746Z,1016.7
2023-12-16T09:21:42.371Z,1016.6
2023-12-16T09:22:43.875Z,1016.6
2023-12-16T09:23:45.738Z,1016.6
2023-12-16T09:24:47.307Z,1016.6
2023-12-16T09:25:49.199Z,1016.6
2023-12-16T09:26:50.894Z,1016.6
2023-12-16T09:27:52.909Z,1016.6
2023-12-16T09:28:55.205Z,1016.6
2023-12-16T09:29:58.040Z,1016.6
2023-12-16T09:30:59.621Z,1016.6
2023-12-16T09:32:02.665Z,1016.6
2023-12-16T09:33:04.362Z,1016.6
2023-12-16T09:34:08.121Z,1016.6
2023-12-16T09:35:16.764Z,1016.6
2023-12-16T09:36:19.164Z,1016.6
2023-12-16T09:37:21.453Z,1016.6
2023-12-16T09:38:25.866Z,1016.6
2023-12-16T09:39:27.268Z,1016.6
2023-12-16T09:40:29.624Z,1016.6
2023-12-16T09:41:31.941Z,1016.6
2023-12-16T09:42:33.587Z,1016.6
2023-12-16T09:43:35.162Z,1016.6
2023-12-16T09:44:37.388Z,1016.6
2023-12-16T09:45:39.117Z,1016.6
2023-12-16T09:46:40.750Z,1016.6
2023-12-16T09:47:43.060Z,1016.6
2023-12-16T09:48:46.026Z,1016.6
2023-12-16T09:49:48.075Z,1016.6
2023-12-16T09:50:50.343Z,1016.6
2023-12-16T09:51:53.415Z,1016.6
2023-12-16T09:52:55.662Z,1016.6
2023-12-16T09:53:57.393Z,1016.6
2023-12-16T09:54:59.233Z,1016.6
2023-12-16T09:56:01.620Z,1016.7
2023-12-16T09:57:03.453Z,1016.6
2023-12-16T09:58:06.819Z,1016.7
2023-12-16T09:59:08.878Z,1016.6
2023-12-16T10:00:10.949Z,1016.7
2023-12-16T10:01:12.558Z,1016.6
2023-12-16T10:02:15.246Z,1016.7
2023-12-16T10:03:18.566Z,1016.7
2023-12-16T10:04:20.923Z,1016.7
2023-12-16T10:05:22.816Z,1016.7
2023-12-16T10:06:24.877Z,1016.7
2023-12-16T10:07:27.942Z,1016.7
2023-12-16T10:08:31.334Z,1016.7
2023-12-16T10:09:33.787Z,1016.7
2023-12-16T10:10:35.277Z,1016.6
2023-12-16T10:11:37.691Z,1016.6
2023-12-16T10:12:39.285Z,1016.6
2023-12-16T10:13:41.492Z,1016.6
2023-12-16T10:14:43.229Z,1016.6
2023-12-16T10:15:45.535Z,1016.6
2023-12-16T10:16:47.325Z,1016.6
2023-12-16T10:18:52.194Z,1016.6
2023-12-16T10:19:54.995Z,1016.5
2023-12-16T10:20:59.295Z,1016.5
2023-12-16T10:22:26.961Z,1016.5
2023-12-16T10:23:32.444Z,1016.5
2023-12-16T10:24:34.979Z,1016.5
2023-12-16T10:25:37.189Z,1016.4
2023-12-16T10:26:40.125Z,1016.4
2023-12-16T10:27:41.739Z,1016.4
2023-12-16T10:28:43.946Z,1016.3
2023-12-16T10:29:53.736Z,1016.3
2023-12-16T10:31:12.840Z,1016.3
2023-12-16T10:32:15.706Z,1016.3
2023-12-16T10:33:17.963Z,1016.2
2023-12-16T10:34:20.700Z,1016.2
2023-12-16T10:35:23.008Z,1016.2
2023-12-16T10:36:25.829Z,1016.2
2023-12-16T10:37:28.450Z,1016.1
2023-12-16T10:38:30.549Z,1016.1
2023-12-16T10:39:32.599Z,1016.1
2023-12-16T10:40:34.570Z,1016.1
2023-12-16T10:41:37.245Z,1016
2023-12-16T10:42:38.815Z,1016
2023-12-16T10:43:41.022Z,1016
2023-12-16T10:44:43.152Z,1015.9
2023-12-16T10:45:45.290Z,1015.9
2023-12-16T10:46:47.754Z,1015.9
2023-12-16T10:47:50.099Z,1015.9
2023-12-16T10:48:54.156Z,1015.9
2023-12-16T10:49:57.405Z,1015.8
2023-12-16T10:50:59.841Z,1015.8
2023-12-16T10:52:03.391Z,1015.8
2023-12-16T10:53:05.791Z,1015.8
2023-12-16T10:54:08.082Z,1015.8
2023-12-16T10:55:09.876Z,1015.7
2023-12-16T10:56:12.646Z,1015.7
2023-12-16T10:57:14.856Z,1015.7
2023-12-16T10:58:16.612Z,1015.7
2023-12-16T10:59:18.676Z,1015.7
2023-12-16T11:00:20.548Z,1015.7
2023-12-16T11:01:22.456Z,1015.7
2023-12-16T11:02:26.724Z,1015.6
2023-12-16T11:03:31.175Z,1015.6
2023-12-16T11:04:33.815Z,1015.6
2023-12-16T11:05:36.673Z,1015.6
2023-12-16T11:06:38.891Z,1015.6
2023-12-16T11:07:40.934Z,1015.6
2023-12-16T11:08:45.573Z,1015.6
2023-12-16T11:09:49.595Z,1015.6
2023-12-16T11:10:52.510Z,1015.6
2023-12-16T11:11:54.321Z,1015.6
2023-12-16T11:12:56.087Z,1015.6
2023-12-16T11:13:57.945Z,1015.6
2023-12-16T11:14:59.823Z,1015.6
2023-12-16T11:16:02.338Z,1015.6
2023-12-16T11:17:05.223Z,1015.6
2023-12-16T11:18:06.966Z,1015.6
2023-12-16T11:19:09.806Z,1015.6
2023-12-16T11:20:12.933Z,1015.6
2023-12-16T11:21:14.744Z,1015.6
2023-12-16T11:22:16.314Z,1015.6
2023-12-16T11:23:18.804Z,1015.6
2023-12-16T11:24:20.601Z,1015.6
2023-12-16T11:25:22.359Z,1015.6
2023-12-16T11:26:26.624Z,1015.6
2023-12-16T11:27:31.219Z,1015.5
2023-12-16T11:28:34.156Z,1015.5
2023-12-16T11:29:37.163Z,1015.5
2023-12-16T11:30:38.690Z,1015.5
2023-12-16T11:31:40.675Z,1015.5
2023-12-16T11:32:43.206Z,1015.5
2023-12-16T11:33:46.868Z,1015.5
2023-12-16T11:34:49.661Z,1015.4
2023-12-16T11:35:52.654Z,1015.4
2023-12-16T11:36:54.556Z,1015.4
2023-12-16T11:37:56.554Z,1015.4
2023-12-16T11:38:58.109Z,1015.4
2023-12-16T11:39:59.721Z,1015.4
2023-12-16T11:41:02.206Z,1015.4
2023-12-16T11:42:04.239Z,1015.3
2023-12-16T11:43:06.140Z,1015.3
2023-12-16T11:44:09.000Z,1015.3
2023-12-16T11:45:10.491Z,1015.3
2023-12-16T11:46:12.124Z,1015.3
2023-12-16T11:47:14.656Z,1015.3
2023-12-16T11:48:16.220Z,1015.3
2023-12-16T11:49:19.591Z,1015.2
2023-12-16T11:50:22.375Z,1015.2
2023-12-16T11:51:30.315Z,1015.2
2023-12-16T11:52:31.899Z,1015.2
2023-12-16T11:53:34.263Z,1015.2
2023-12-16T11:54:35.917Z,1015.2
2023-12-16T11:55:37.525Z,1015.2
2023-12-16T11:56:40.379Z,1015.2
2023-12-16T11:57:42.668Z,1015.2
2023-12-16T11:58:44.207Z,1015.1
2023-12-16T11:59:45.711Z,1015.1
2023-12-16T12:00:48.985Z,1015.1
2023-12-16T12:01:51.639Z,1015.1
2023-12-16T12:02:53.651Z,1015.1
2023-12-16T12:03:55.260Z,1015.1
2023-12-16T12:04:58.005Z,1015.1
2023-12-16T12:06:00.721Z,1015
2023-12-16T12:07:03.144Z,1015
2023-12-16T12:08:05.054Z,1015
2023-12-16T12:09:06.571Z,1015
2023-12-16T12:10:08.670Z,1014.9
2023-12-16T12:11:11.018Z,1014.9
2023-12-16T12:12:13.127Z,1014.9
2023-12-16T12:13:15.553Z,1014.9
2023-12-16T12:14:17.543Z,1014.9
2023-12-16T12:15:20.754Z,1014.8
2023-12-16T12:16:22.864Z,1014.8
2023-12-16T12:17:25.000Z,1014.8
2023-12-16T12:18:26.979Z,1014.8
2023-12-16T12:19:29.244Z,1014.8
2023-12-16T12:20:31.853Z,1014.7
2023-12-16T12:21:33.709Z,1014.7
2023-12-16T12:22:35.286Z,1014.7
2023-12-16T12:23:41.233Z,1014.7
2023-12-16T12:24:42.841Z,1014.7
2023-12-16T12:25:44.905Z,1014.7
2023-12-16T12:26:46.874Z,1014.7
2023-12-16T12:27:48.540Z,1014.6
2023-12-16T12:28:51.266Z,1014.6
2023-12-16T12:29:52.810Z,1014.6
2023-12-16T12:30:55.141Z,1014.6
2023-12-16T12:31:57.252Z,1014.6
2023-12-16T12:32:58.848Z,1014.5
2023-12-16T12:34:01.678Z,1014.5
2023-12-16T12:35:06.599Z,1014.5
2023-12-16T12:36:11.638Z,1014.5
2023-12-16T12:37:14.470Z,1014.4
2023-12-16T12:38:17.017Z,1014.4
2023-12-16T12:39:21.947Z,1014.4
2023-12-16T12:40:23.488Z,1014.4
2023-12-16T12:41:25.002Z,1014.3
2023-12-16T12:42:26.648Z,1014.3
2023-12-16T12:43:28.730Z,1014.3
2023-12-16T12:44:30.790Z,1014.3
2023-12-16T12:45:33.212Z,1014.2
2023-12-16T12:46:34.931Z,1014.2
2023-12-16T12:47:36.963Z,1014.2
2023-12-16T12:48:41.385Z,1014.2
2023-12-16T12:49:43.737Z,1014.1
2023-12-16T12:50:46.227Z,1014.1
2023-12-16T12:51:49.025Z,1014.1
2023-12-16T12:53:16.138Z,1014.1
2023-12-16T12:54:27.933Z,1014
2023-12-16T12:55:30.282Z,1014
2023-12-16T12:56:31.928Z,1014
2023-12-16T12:57:34.164Z,1014
2023-12-16T12:58:35.854Z,1013.9
2023-12-16T12:59:56.583Z,1013.9
2023-12-16T13:01:12.542Z,1013.9
2023-12-16T13:02:15.236Z,1013.9